Time;durP1;ratioP1;P1;durP2;ratioP2;P2;SDS_P1;SDS_P2;PMS_P1;PMS_P2;Temp;Humidity;BMP_temperature;BMP_pressure;BME280_temperature;BME280_humidity;BME280_pressure;Samples;Min_cycle;Max_cycle;Signal;HPM_P1;HPM_P2
2021/03/30 00:00:12;;;;;;;7.87;3.00;;;;;;;2.12;100.00;101413.37;1695766;84;21176;-65
2021/03/30 00:02:39;;;;;;;10.07;5.13;;;;;;;2.08;100.00;101410.87;1695613;84;21041;-65
2021/03/30 00:05:10;;;;;;;5.53;2.83;;;;;;;2.03;100.00;101409.39;1695798;84;21005;-65
2021/03/30 00:07:37;;;;;;;13.17;5.63;;;;;;;1.98;100.00;101414.97;1695804;84;21642;-66
2021/03/30 00:10:08;;;;;;;8.83;3.43;;;;;;;1.92;100.00;101408.64;1695725;84;21026;-66
2021/03/30 00:12:36;;;;;;;9.87;3.47;;;;;;;1.86;100.00;101408.50;1695759;84;21349;-65
2021/03/30 00:15:08;;;;;;;9.50;3.47;;;;;;;1.83;100.00;101409.14;1695628;84;21053;-66
2021/03/30 00:17:35;;;;;;;8.67;3.40;;;;;;;1.76;100.00;101409.92;1691281;84;21021;-65
2021/03/30 00:20:11;;;;;;;12.23;4.93;;;;;;;1.73;100.00;101411.89;1685476;84;21040;-64
2021/03/30 00:22:42;;;;;;;8.23;4.27;;;;;;;1.68;100.00;101410.78;1672797;85;21088;-65
2021/03/30 00:25:12;;;;;;;9.07;3.03;;;;;;;1.64;100.00;101414.08;1674502;84;21215;-66
2021/03/30 00:27:40;;;;;;;5.30;4.03;;;;;;;1.60;100.00;101415.20;1688910;84;21706;-65
2021/03/30 00:30:09;;;;;;;6.07;3.27;;;;;;;1.57;100.00;101411.83;1689052;85;21056;-66
2021/03/30 00:32:37;;;;;;;10.13;3.53;;;;;;;1.51;100.00;101411.20;1689044;85;21024;-65
2021/03/30 00:35:07;;;;;;;3.53;2.20;;;;;;;1.48;100.00;101410.50;1689012;84;21036;-66
2021/03/30 00:37:36;;;;;;;9.57;3.47;;;;;;;1.45;100.00;101415.98;1689020;85;21249;-65
2021/03/30 00:40:09;;;;;;;8.37;3.53;;;;;;;1.40;100.00;101411.34;1688941;85;21577;-64
2021/03/30 00:42:38;;;;;;;2.90;2.50;;;;;;;1.36;100.00;101421.30;1688997;85;21008;-65
2021/03/30 00:45:08;;;;;;;1.73;1.50;;;;;;;1.33;100.00;101421.48;1689035;84;21044;-65
2021/03/30 00:47:39;;;;;;;3.67;1.70;;;;;;;1.28;100.00;101420.37;1689168;84;21076;-65
2021/03/30 00:50:09;;;;;;;1.53;1.43;;;;;;;1.23;100.00;101414.41;1688855;84;21209;-64
2021/03/30 00:52:38;;;;;;;4.17;2.60;;;;;;;1.20;100.00;101425.69;1688979;85;21024;-67
2021/03/30 00:55:24;;;;;;;3.60;2.53;;;;;;;1.17;100.00;101424.05;1689134;85;21709;-66
2021/03/30 00:57:52;;;;;;;2.00;1.50;;;;;;;1.12;100.00;101420.28;1689146;85;20945;-65
2021/03/30 01:00:22;;;;;;;2.33;1.93;;;;;;;1.11;100.00;101426.53;1689204;85;21005;-65
2021/03/30 01:02:50;;;;;;;3.53;2.63;;;;;;;1.08;100.00;101428.48;1689095;85;21406;-65
2021/03/30 01:05:18;;;;;;;1.47;1.23;;;;;;;1.06;100.00;101425.92;1689162;84;21112;-65
2021/03/30 01:07:57;;;;;;;5.00;1.70;;;;;;;1.04;100.00;101425.59;1689193;84;21076;-65
2021/03/30 01:10:54;;;;;;;10.17;1.83;;;;;;;1.01;100.00;101428.40;1604294;89;21201;-65
2021/03/30 01:13:46;;;;;;;2.63;0.83;;;;;;;0.98;100.00;101424.58;1609067;89;21045;-65
2021/03/30 01:16:32;;;;;;;3.57;1.93;;;;;;;0.97;100.00;101422.84;1889848;76;26771;-64
2021/03/30 01:19:15;;;;;;;1.63;1.53;;;;;;;0.90;100.00;101432.47;1731503;82;21040;-65
2021/03/30 01:22:17;;;;;;;8.43;1.60;;;;;;;0.86;100.00;101428.69;1728666;82;22225;-65
2021/03/30 01:24:57;;;;;;;2.23;1.73;;;;;;;0.86;100.00;101416.70;1889800;76;26603;-64
2021/03/30 01:27:49;;;;;;;3.63;2.33;;;;;;;0.83;100.00;101426.17;1731177;82;21088;-66
2021/03/30 01:30:24;;;;;;;0.97;0.93;;;;;;;0.82;100.00;101421.80;1854046;76;27192;-66
2021/03/30 01:33:00;;;;;;;1.87;1.70;;;;;;;0.75;100.00;101430.06;1757722;81;21016;-65
2021/03/30 01:35:28;;;;;;;2.93;1.83;;;;;;;0.75;100.00;101435.88;1778161;79;21350;-65
2021/03/30 01:37:56;;;;;;;1.57;1.47;;;;;;;0.71;100.00;101435.16;1747764;80;21037;-65
2021/03/30 01:40:30;;;;;;;3.03;1.00;;;;;;;0.70;100.00;101433.89;1777764;80;21014;-65
2021/03/30 01:42:58;;;;;;;2.25;1.22;;;;;;;0.67;100.00;101430.04;1697813;84;21029;-66
2021/03/30 01:45:26;;;;;;;1.70;1.47;;;;;;;0.63;100.00;101435.98;1697860;84;21025;-66
2021/03/30 01:47:54;;;;;;;0.73;0.57;;;;;;;0.61;100.00;101435.67;1697813;84;21227;-66
2021/03/30 01:50:23;;;;;;;1.27;1.17;;;;;;;0.59;100.00;101440.21;1700011;84;21041;-64
2021/03/30 01:52:51;;;;;;;1.13;1.13;;;;;;;0.56;100.00;101438.06;1700225;84;21036;-65
2021/03/30 01:55:19;;;;;;;1.23;1.23;;;;;;;0.54;100.00;101433.77;1697680;84;21080;-66
2021/03/30 01:57:53;;;;;;;3.23;2.30;;;;;;;0.52;100.00;101434.30;1697698;84;21025;-65
2021/03/30 02:00:24;;;;;;;3.13;2.37;;;;;;;0.49;100.00;101435.77;1690576;84;22291;-65
2021/03/30 02:02:51;;;;;;;0.70;0.70;;;;;;;0.46;100.00;101435.91;1697522;84;21025;-66
2021/03/30 02:05:20;;;;;;;3.60;0.97;;;;;;;0.43;100.00;101442.73;1697671;84;21048;-66
2021/03/30 02:07:54;;;;;;;1.00;1.00;;;;;;;0.41;100.00;101440.58;1697511;84;21080;-65
2021/03/30 02:13:08;;;;;;;0.97;0.90;;;;;;;0.40;100.00;101446.86;1845029;76;26990;-66
2021/03/30 02:15:36;;;;;;;1.77;1.67;;;;;;;0.33;100.00;101447.59;1815112;79;20980;-65
2021/03/30 02:18:15;;;;;;;2.47;2.27;;;;;;;0.30;100.00;101448.62;1815197;77;21202;-65
2021/03/30 02:20:47;;;;;;;1.07;1.07;;;;;;;0.27;100.00;101450.55;1740630;81;20980;-65
2021/03/30 02:23:23;;;;;;;1.45;1.07;;;;;;;0.22;100.00;101449.42;1748789;82;20944;-64
2021/03/30 02:25:55;;;;;;;1.73;1.63;;;;;;;0.19;100.00;101453.55;1734030;81;21014;-66
2021/03/30 02:28:44;;;;;;;0.70;0.70;;;;;;;0.18;100.00;101453.17;1845015;76;26821;-66
2021/03/30 02:31:07;;;;;;;1.13;1.13;;;;;;;0.12;100.00;101457.42;1810862;79;20904;-65
2021/03/30 02:33:35;;;;;;;3.10;1.83;;;;;;;0.09;100.00;101457.55;1815209;79;21247;-65
2021/03/30 02:36:07;;;;;;;1.60;1.50;;;;;;;0.05;100.00;101459.48;1784708;79;21011;-66
2021/03/30 02:38:34;;;;;;;1.83;1.67;;;;;;;0.02;100.00;101466.73;1815175;79;20925;-66
2021/03/30 02:41:04;;;;;;;4.13;2.33;;;;;;;-0.02;100.00;101462.91;1815073;79;20980;-65
2021/03/30 02:43:34;;;;;;;1.83;1.73;;;;;;;-0.04;100.00;101473.20;1815163;79;20991;-65
2021/03/30 02:46:03;;;;;;;1.00;1.00;;;;;;;-0.06;100.00;101473.26;1815226;77;22093;-64
2021/03/30 02:48:31;;;;;;;2.13;1.90;;;;;;;-0.09;100.00;101470.76;1815196;79;20924;-65
2021/03/30 02:51:01;;;;;;;1.90;1.77;;;;;;;-0.11;100.00;101470.41;1815047;79;20944;-64
2021/03/30 02:53:31;;;;;;;3.23;2.17;;;;;;;-0.14;100.00;101471.87;1815024;77;21032;-65
2021/03/30 02:56:01;;;;;;;1.50;1.33;;;;;;;-0.18;100.00;101477.78;1815214;79;20920;-66
2021/03/30 02:58:29;;;;;;;2.77;2.50;;;;;;;-0.22;100.00;101478.38;1815076;79;21193;-65
2021/03/30 03:00:58;;;;;;;4.53;1.33;;;;;;;-0.24;100.00;101481.58;1815042;77;21034;-65
2021/03/30 03:03:32;;;;;;;4.13;2.00;;;;;;;-0.27;100.00;101483.03;1815095;77;20913;-65
2021/03/30 03:06:00;;;;;;;2.03;1.93;;;;;;;-0.29;100.00;101476.92;1784900;79;20964;-66
2021/03/30 03:08:30;;;;;;;1.40;1.30;;;;;;;-0.31;100.00;101481.45;1815149;79;21607;-65
2021/03/30 03:10:59;;;;;;;2.03;1.87;;;;;;;-0.34;100.00;101486.03;1815057;79;21479;-65
2021/03/30 03:13:28;;;;;;;4.23;1.83;;;;;;;-0.37;100.00;101484.38;1815061;79;20924;-66
2021/03/30 03:15:58;;;;;;;2.20;2.00;;;;;;;-0.37;100.00;101485.71;1815147;79;20992;-65
2021/03/30 03:18:26;;;;;;;3.20;1.80;;;;;;;-0.41;100.00;101490.30;1814858;79;20968;-66
2021/03/30 03:20:56;;;;;;;1.07;1.07;;;;;;;-0.43;100.00;101492.13;1837276;77;20965;-64
2021/03/30 03:23:26;;;;;;;1.67;1.43;;;;;;;-0.45;100.00;101493.13;1860724;76;21429;-65
2021/03/30 03:25:54;;;;;;;2.13;1.93;;;;;;;-0.48;100.00;101499.45;1818441;78;21012;-66
2021/03/30 03:28:22;;;;;;;2.00;1.90;;;;;;;-0.48;100.00;101503.88;1814996;78;21004;-65
2021/03/30 03:30:51;;;;;;;0.87;0.87;;;;;;;-0.52;100.00;101503.15;1784186;79;20993;-65
2021/03/30 03:33:19;;;;;;;0.90;0.90;;;;;;;-0.54;100.00;101506.81;1783977;79;21022;-65
2021/03/30 03:36:09;;;;;;;1.23;1.03;;;;;;;-0.55;100.00;101509.05;1815264;79;21450;-65
2021/03/30 03:38:42;;;;;;;1.67;1.10;;;;;;;-0.55;100.00;101517.03;1727749;82;21581;-65
2021/03/30 03:41:13;;;;;;;1.23;1.13;;;;;;;-0.55;100.00;101515.70;1727158;83;21022;-64
2021/03/30 03:43:43;;;;;;;0.80;0.80;;;;;;;-0.56;100.00;101518.83;1727421;83;21790;-64
2021/03/30 03:46:16;;;;;;;1.23;1.13;;;;;;;-0.58;100.00;101516.23;1727263;83;21064;-65
2021/03/30 03:48:45;;;;;;;4.63;2.33;;;;;;;-0.60;100.00;101520.75;1727531;83;21379;-65
2021/03/30 03:51:15;;;;;;;2.47;1.63;;;;;;;-0.61;100.00;101533.62;1727108;83;21043;-65
2021/03/30 03:53:43;;;;;;;3.20;1.87;;;;;;;-0.62;100.00;101535.00;1727435;83;21055;-65
2021/03/30 03:56:11;;;;;;;1.83;1.17;;;;;;;-0.64;100.00;101527.56;1727172;81;21338;-65
2021/03/30 03:58:45;;;;;;;5.27;2.97;;;;;;;-0.65;100.00;101532.50;1727538;83;20972;-65
2021/03/30 04:01:22;;;;;;;5.40;1.40;;;;;;;-0.65;100.00;101534.68;1727161;83;21584;-65
2021/03/30 04:04:00;;;;;;;3.97;1.63;;;;;;;-0.64;100.00;101536.87;1727360;83;21016;-65
2021/03/30 04:06:31;;;;;;;1.00;0.90;;;;;;;-0.64;100.00;101532.88;1727145;83;21059;-65
2021/03/30 04:09:00;;;;;;;4.70;1.63;;;;;;;-0.61;100.00;101534.09;1727512;82;21174;-65
2021/03/30 04:11:28;;;;;;;1.20;1.13;;;;;;;-0.60;100.00;101540.67;1727238;83;21039;-65
2021/03/30 04:13:57;;;;;;;1.37;1.27;;;;;;;-0.58;100.00;101543.27;1703602;83;21205;-66
2021/03/30 04:16:25;;;;;;;5.73;2.30;;;;;;;-0.56;100.00;101548.06;1742983;82;20979;-64
2021/03/30 04:18:53;;;;;;;5.80;1.87;;;;;;;-0.55;100.00;101552.89;1770495;81;21044;-65
2021/03/30 04:21:25;;;;;;;3.87;2.13;;;;;;;-0.53;100.00;101547.94;1750180;81;21028;-65
2021/03/30 04:23:53;;;;;;;2.03;1.60;;;;;;;-0.51;100.00;101546.08;1740089;82;20996;-64
2021/03/30 04:26:21;;;;;;;7.53;1.57;;;;;;;-0.50;100.00;101551.77;1734956;81;21200;-65
2021/03/30 04:28:49;;;;;;;4.37;1.77;;;;;;;-0.47;100.00;101547.67;1740195;81;20996;-66
2021/03/30 04:31:17;;;;;;;5.33;1.43;;;;;;;-0.42;100.00;101554.14;1740135;82;20989;-65
2021/03/30 04:33:45;;;;;;;2.27;1.50;;;;;;;-0.40;100.00;101554.46;1740322;82;20992;-65
2021/03/30 04:36:13;;;;;;;3.00;1.90;;;;;;;-0.37;100.00;101555.26;1740265;82;21008;-66
2021/03/30 04:38:41;;;;;;;0.77;0.77;;;;;;;-0.33;100.00;101555.55;1740284;82;21392;-64
2021/03/30 04:41:10;;;;;;;3.20;1.77;;;;;;;-0.29;100.00;101557.14;1740270;82;21001;-64
2021/03/30 04:43:40;;;;;;;1.47;1.37;;;;;;;-0.24;100.00;101560.00;1740196;82;21538;-65
2021/03/30 04:46:09;;;;;;;5.17;2.23;;;;;;;-0.19;100.00;101567.80;1740175;82;21032;-66
2021/03/30 04:48:39;;;;;;;2.03;1.60;;;;;;;-0.13;100.00;101564.86;1740216;82;21141;-65
2021/03/30 04:51:07;;;;;;;2.10;1.83;;;;;;;-0.07;100.00;101573.93;1740127;82;21205;-65
2021/03/30 04:53:36;;;;;;;2.73;1.47;;;;;;;-0.03;100.00;101570.20;1740202;81;21028;-64
2021/03/30 04:56:05;;;;;;;3.50;2.13;;;;;;;0.03;100.00;101577.52;1740325;82;21015;-65
2021/03/30 04:58:32;;;;;;;1.87;1.70;;;;;;;0.08;100.00;101574.20;1740115;82;21071;-64
2021/03/30 05:01:03;;;;;;;2.23;1.50;;;;;;;0.16;100.00;101575.60;1740265;82;21051;-66
2021/03/30 05:03:31;;;;;;;3.30;2.67;;;;;;;0.23;100.00;101571.33;1740129;82;21200;-66
2021/03/30 05:05:59;;;;;;;1.63;1.53;;;;;;;0.30;100.00;101574.11;1740200;82;20953;-67
2021/03/30 05:08:27;;;;;;;6.80;2.47;;;;;;;0.40;100.00;101576.77;1760104;81;20887;-66
2021/03/30 05:10:55;;;;;;;2.57;2.23;;;;;;;0.52;100.00;101577.56;1763371;81;21064;-66
2021/03/30 05:13:23;;;;;;;2.63;2.43;;;;;;;0.62;100.00;101578.47;1763456;81;21073;-67
2021/03/30 05:15:53;;;;;;;5.43;3.03;;;;;;;0.70;100.00;101580.33;1763542;81;21381;-66
2021/03/30 05:18:21;;;;;;;3.73;3.40;;;;;;;0.77;100.00;101572.94;1763290;81;21001;-67
2021/03/30 05:20:49;;;;;;;1.50;1.30;;;;;;;0.85;100.00;101572.09;1743735;82;20941;-66
2021/03/30 05:23:18;;;;;;;2.73;2.00;;;;;;;0.95;100.00;101574.73;1770676;81;21023;-66
2021/03/30 05:25:45;;;;;;;1.87;1.77;;;;;;;1.05;100.00;101576.52;1758080;79;21028;-66
2021/03/30 05:28:14;;;;;;;10.90;4.67;;;;;;;1.16;100.00;101577.33;1738994;81;21536;-65
2021/03/30 05:30:42;;;;;;;9.57;4.83;;;;;;;1.25;100.00;101577.74;1721317;80;21056;-66
2021/03/30 05:33:12;;;;;;;12.53;4.83;;;;;;;1.36;100.00;101578.55;1787714;79;21039;-67
2021/03/30 05:35:41;;;;;;;17.80;7.30;;;;;;;1.48;100.00;101580.62;1788482;80;20948;-66
2021/03/30 05:38:09;;;;;;;8.27;4.67;;;;;;;1.57;100.00;101580.65;1786375;80;21100;-67
2021/03/30 05:40:38;;;;;;;12.20;5.10;;;;;;;1.63;100.00;101575.48;1789162;80;21344;-66
2021/03/30 05:43:06;;;;;;;14.77;4.80;;;;;;;1.67;100.00;101579.74;1789272;80;21038;-66
2021/03/30 05:45:36;;;;;;;16.00;5.87;;;;;;;1.70;100.00;101583.12;1788139;80;21007;-66
2021/03/30 05:48:09;;;;;;;4.17;2.70;;;;;;;1.75;100.00;101578.02;1763774;80;21050;-66
2021/03/30 05:50:37;;;;;;;;;;;;;;;1.81;100.00;101582.58;1766301;80;21047;-66
2021/03/30 05:53:08;;;;;;;3.83;2.43;;;;;;;1.87;100.00;101576.92;1787846;80;21394;-66
2021/03/30 05:58:19;;;;;;;7.00;4.07;;;;;;;2.12;100.00;101577.48;1845405;76;26629;-67
2021/03/30 06:00:49;;;;;;;2.93;1.93;;;;;;;2.20;100.00;101581.49;1815331;78;21003;-67
2021/03/30 06:03:27;;;;;;;7.77;3.60;;;;;;;2.36;100.00;101582.89;1825123;77;21374;-66
2021/03/30 06:06:00;;;;;;;8.93;4.37;;;;;;;2.53;100.00;101589.14;1825427;78;21001;-67
2021/03/30 06:08:30;;;;;;;4.60;2.83;;;;;;;2.66;100.00;101585.73;1825074;78;21009;-66
2021/03/30 06:11:05;;;;;;;7.83;4.03;;;;;;;2.76;100.00;101582.12;1825314;77;21518;-68
2021/03/30 06:13:56;;;;;;;12.07;4.73;;;;;;;2.88;100.00;101587.24;1825291;77;21052;-67
2021/03/30 06:16:34;;;;;;;6.70;3.13;;;;;;;3.11;100.00;101587.31;1825313;77;21197;-69
2021/03/30 06:19:17;;;;;;;4.43;2.60;;;;;;;3.32;100.00;101590.60;1825205;78;20997;-67
2021/03/30 06:21:48;;;;;;;4.03;2.73;;;;;;;3.41;100.00;101591.41;1816684;77;21573;-68
2021/03/30 06:24:31;;;;;;;5.27;2.43;;;;;;;3.49;100.00;101589.66;1704222;82;20964;-66
2021/03/30 06:27:09;;;;;;;2.23;2.03;;;;;;;3.48;100.00;101594.61;1701044;82;21628;-67
2021/03/30 06:29:39;;;;;;;8.17;3.40;;;;;;;3.44;100.00;101589.55;1697442;84;22453;-67
2021/03/30 06:32:15;;;;;;;14.03;6.43;;;;;;;3.53;100.00;101594.36;1696651;84;21150;-66
2021/03/30 06:34:46;;;;;;;6.03;3.07;;;;;;;3.74;100.00;101593.13;1674458;84;21031;-68
2021/03/30 06:37:31;;;;;;;11.83;3.30;;;;;;;3.93;100.00;101594.71;1695702;84;21276;-67
2021/03/30 06:40:19;;;;;;;2.43;1.97;;;;;;;3.97;100.00;101591.77;1697658;83;21058;-67
2021/03/30 06:42:51;;;;;;;4.40;1.53;;;;;;;4.02;100.00;101590.63;1698635;84;21225;-68
2021/03/30 06:45:24;;;;;;;3.73;3.07;;;;;;;4.05;100.00;101583.28;1695687;82;21036;-67
2021/03/30 06:48:03;;;;;;;5.17;2.67;;;;;;;4.19;100.00;101592.69;1694378;84;21197;-68
2021/03/30 06:50:38;;;;;;;8.93;3.90;;;;;;;4.46;100.00;101594.68;1697370;84;21043;-69
2021/03/30 06:53:14;;;;;;;5.47;3.03;;;;;;;4.71;100.00;101588.67;1697101;84;21040;-68
2021/03/30 06:55:52;;;;;;;12.40;4.97;;;;;;;4.90;100.00;101592.38;1697559;84;21288;-71
2021/03/30 06:58:23;;;;;;;4.30;2.03;;;;;;;5.05;100.00;101587.03;1692163;82;21048;-69
2021/03/30 07:00:52;;;;;;;6.23;3.47;;;;;;;5.09;100.00;101584.04;1691918;84;21072;-70
2021/03/30 07:03:21;;;;;;;10.90;3.70;;;;;;;5.13;100.00;101589.61;1691988;83;21079;-69
2021/03/30 07:05:52;;;;;;;4.07;2.67;;;;;;;5.34;100.00;101593.19;1691971;84;21005;-70
2021/03/30 07:08:22;;;;;;;4.23;3.07;;;;;;;5.60;100.00;101586.13;1691814;84;21375;-70
2021/03/30 07:10:53;;;;;;;3.33;2.40;;;;;;;5.73;100.00;101591.55;1691500;84;20925;-70
2021/03/30 07:13:35;;;;;;;3.97;2.53;;;;;;;5.84;100.00;101590.83;1889798;76;26469;-70
2021/03/30 07:16:12;;;;;;;2.60;2.00;;;;;;;5.99;100.00;101593.02;1860506;77;21069;-69
2021/03/30 07:18:44;;;;;;;4.70;2.73;;;;;;;6.08;100.00;101590.55;1734043;82;21182;-68
2021/03/30 07:21:27;;;;;;;8.23;3.67;;;;;;;6.07;100.00;101586.16;1750739;81;21091;-69
2021/03/30 07:24:02;;;;;;;5.72;3.10;;;;;;;6.16;100.00;101591.39;1762060;81;21015;-68
2021/03/30 07:26:46;;;;;;;3.07;2.33;;;;;;;6.11;100.00;101589.96;1747599;81;21075;-67
2021/03/30 07:29:18;;;;;;;3.63;2.47;;;;;;;6.08;100.00;101598.61;1743716;81;21005;-70
2021/03/30 07:32:03;;;;;;;3.73;2.10;;;;;;;6.26;100.00;101595.14;1838088;76;27106;-68
2021/03/30 07:34:58;;;;;;;4.00;2.40;;;;;;;6.25;100.00;101600.16;1790078;79;21043;-69
2021/03/30 07:37:57;;;;;;;2.97;2.43;;;;;;;6.25;100.00;101597.94;1721417;83;22478;-69
2021/03/30 07:40:25;;;;;;;3.70;2.57;;;;;;;6.35;100.00;101599.52;1728721;83;21043;-73
2021/03/30 07:42:54;;;;;;;2.73;1.87;;;;;;;6.39;100.00;101610.42;1728708;81;21735;-72
2021/03/30 07:45:27;;;;;;;4.43;3.03;;;;;;;6.39;100.00;101601.02;1728959;83;21217;-73
2021/03/30 07:47:55;;;;;;;3.77;2.43;;;;;;;6.53;100.00;101609.48;1697281;84;21090;-71
2021/03/30 07:50:24;;;;;;;2.30;2.13;;;;;;;6.78;100.00;101610.84;1719776;83;21164;-71
2021/03/30 07:52:53;;;;;;;3.83;2.67;;;;;;;6.90;100.00;101603.72;1725037;82;21385;-74
2021/03/30 07:55:23;;;;;;;3.10;2.57;;;;;;;6.98;100.00;101609.91;1720963;83;20957;-69
2021/03/30 07:58:13;;;;;;;5.50;2.33;;;;;;;7.09;100.00;101605.11;1724723;83;21011;-70
2021/03/30 08:00:49;;;;;;;4.30;3.10;;;;;;;7.20;100.00;101611.41;1728846;83;21020;-69
2021/03/30 08:03:24;;;;;;;6.22;3.85;;;;;;;7.34;100.00;101606.38;1729928;82;25042;-69
2021/03/30 08:06:26;;;;;;;4.13;3.00;;;;;;;7.57;100.00;101606.04;1723209;83;21067;-69
2021/03/30 08:09:09;;;;;;;5.43;3.33;;;;;;;7.88;100.00;101602.42;1690529;84;21638;-69
2021/03/30 08:11:52;;;;;;;4.27;2.77;;;;;;;7.97;100.00;101610.30;1727390;83;21025;-67
2021/03/30 08:14:30;;;;;;;3.00;2.33;;;;;;;8.12;100.00;101611.81;1699151;83;21113;-68
2021/03/30 08:17:02;;;;;;;5.13;4.03;;;;;;;8.34;100.00;101601.61;1714655;83;21253;-68
2021/03/30 08:19:31;;;;;;;2.37;1.93;;;;;;;8.59;100.00;101598.39;1731128;81;20980;-67
2021/03/30 08:22:07;;;;;;;1.77;1.67;;;;;;;8.93;100.00;101595.72;1729549;83;21203;-67
2021/03/30 08:24:49;;;;;;;2.00;1.80;;;;;;;9.08;100.00;101602.60;1696665;84;21228;-67
2021/03/30 08:27:38;;;;;;;1.80;1.57;;;;;;;9.06;100.00;101588.34;1727964;80;21129;-67
2021/03/30 08:30:23;;;;;;;3.27;2.37;;;;;;;8.92;100.00;101598.92;1726481;81;21122;-69
2021/03/30 08:32:53;;;;;;;;;;;;;;;9.08;100.00;101591.80;1734029;79;21102;-66
2021/03/30 08:35:34;;;;;;;3.80;1.90;;;;;;;9.22;100.00;101596.06;1815052;79;20172;-67
2021/03/30 08:38:05;;;;;;;1.63;1.53;;;;;;;9.34;100.00;101590.67;1814978;79;21176;-68
2021/03/30 08:40:39;;;;;;;3.73;2.07;;;;;;;9.39;100.00;101587.10;1808054;79;21004;-67
2021/03/30 08:43:18;;;;;;;2.60;1.67;;;;;;;9.60;100.00;101583.98;1795788;79;20996;-66
2021/03/30 08:46:11;;;;;;;2.97;1.63;;;;;;;9.78;100.00;101588.34;1697658;81;21049;-67
2021/03/30 08:48:49;;;;;;;2.17;1.72;;;;;;;9.88;100.00;101571.73;1699192;83;21609;-69
2021/03/30 08:51:22;;;;;;;1.93;1.70;;;;;;;10.02;100.00;101566.98;1680216;84;21044;-69
2021/03/30 08:53:51;;;;;;;1.97;1.70;;;;;;;10.00;100.00;101573.02;1726871;83;20999;-69
2021/03/30 08:56:26;;;;;;;2.97;1.93;;;;;;;10.02;100.00;101575.98;1712461;82;21383;-66
2021/03/30 08:58:57;;;;;;;3.57;2.97;;;;;;;9.86;100.00;101575.53;1731952;82;21099;-67
2021/03/30 09:01:25;;;;;;;3.93;2.67;;;;;;;9.77;100.00;101570.41;1732345;82;21344;-68
2021/03/30 09:03:55;;;;;;;1.87;1.70;;;;;;;9.95;100.00;101569.37;1703241;82;21020;-68
2021/03/30 09:09:27;;;;;;;7.43;4.23;;;;;;;10.35;100.00;101571.39;1842892;76;22969;-69
2021/03/30 09:11:55;;;;;;;2.80;2.50;;;;;;;10.47;100.00;101569.48;1813935;79;21004;-71
2021/03/30 09:14:22;;;;;;;3.60;2.30;;;;;;;10.74;99.86;101564.00;1814620;79;22098;-70
2021/03/30 09:16:52;;;;;;;2.08;1.55;;;;;;;10.99;99.41;101570.80;1814635;78;21079;-69
2021/03/30 09:19:31;;;;;;;1.55;1.37;;;;;;;11.07;92.42;101566.92;1815006;79;21640;-70
2021/03/30 09:22:03;;;;;;;1.20;1.20;;;;;;;10.84;91.69;101564.91;1814797;79;21008;-69
2021/03/30 09:27:33;;;;;;;4.10;2.33;;;;;;;10.46;98.12;101567.75;1803665;77;22360;-69
2021/03/30 09:30:08;;;;;;;4.87;2.10;;;;;;;10.48;92.92;101559.52;1801239;77;21129;-70
2021/03/30 09:32:37;;;;;;;1.87;1.43;;;;;;;10.47;90.27;101555.11;1775587;79;21196;-70
2021/03/30 09:35:16;;;;;;;5.33;1.70;;;;;;;10.48;91.79;101556.30;1769195;79;21122;-70
2021/03/30 09:37:52;;;;;;;1.07;0.98;;;;;;;10.52;89.10;101553.72;1768089;81;21212;-68
2021/03/30 09:40:26;;;;;;;4.75;2.15;;;;;;;10.52;91.69;101551.02;1759445;79;21181;-69
2021/03/30 09:42:54;;;;;;;1.90;1.63;;;;;;;10.66;92.93;101554.34;1762767;81;21036;-69
2021/03/30 09:45:28;;;;;;;1.17;1.00;;;;;;;10.76;92.10;101552.55;1756857;81;21045;-68
2021/03/30 09:47:59;;;;;;;5.05;3.67;;;;;;;10.77;86.94;101555.13;1757918;81;21029;-69
2021/03/30 09:50:28;;;;;;;1.80;1.70;;;;;;;10.69;90.66;101558.98;1738130;81;21072;-70
2021/03/30 09:53:07;;;;;;;1.72;1.62;;;;;;;10.91;94.37;101555.26;1761123;81;21236;-69
2021/03/30 09:55:45;;;;;;;1.45;1.30;;;;;;;11.08;88.33;101551.02;1760303;81;21574;-71
2021/03/30 09:58:18;;;;;;;2.70;1.92;;;;;;;11.19;89.39;101556.36;1760857;81;21036;-70
2021/03/30 10:00:52;;;;;;;3.40;1.98;;;;;;;11.24;86.79;101553.72;1772785;79;21034;-70
2021/03/30 10:03:23;;;;;;;3.45;2.12;;;;;;;11.35;90.42;101557.17;1766789;81;20961;-71
2021/03/30 10:05:51;;;;;;;1.05;1.02;;;;;;;11.53;85.67;101553.80;1756253;81;21454;-70
2021/03/30 10:11:02;;;;;;;2.17;1.90;;;;;;;11.66;85.16;101553.52;1845196;76;22777;-70
2021/03/30 10:13:37;;;;;;;1.50;1.40;;;;;;;11.66;83.78;101548.09;1815425;78;20937;-71
2021/03/30 10:16:07;;;;;;;5.25;2.27;;;;;;;11.69;86.52;101550.02;1719453;81;22055;-69
2021/03/30 10:18:36;;;;;;;9.35;4.60;;;;;;;11.94;82.62;101547.27;1688558;83;21025;-68
2021/03/30 10:21:15;;;;;;;2.12;1.95;;;;;;;12.00;82.98;101551.26;1692016;84;21036;-74
2021/03/30 10:23:50;;;;;;;3.70;2.52;;;;;;;11.83;78.15;101558.23;1684913;84;21020;-70
2021/03/30 10:26:28;;;;;;;3.87;2.90;;;;;;;11.34;77.99;101554.61;1710416;82;21211;-70
2021/03/30 10:29:04;;;;;;;5.15;3.60;;;;;;;11.09;84.04;101551.40;1649178;84;22176;-70
2021/03/30 10:31:40;;;;;;;5.25;3.27;;;;;;;11.30;87.85;101558.59;1689038;84;21043;-67
2021/03/30 10:34:29;;;;;;;25.72;11.30;;;;;;;11.47;85.39;101553.83;1696868;84;21098;-72
2021/03/30 10:37:07;;;;;;;6.95;3.35;;;;;;;11.34;83.11;101548.69;1860502;76;28443;-68
2021/03/30 10:39:42;;;;;;;2.92;2.40;;;;;;;11.09;84.37;101553.26;1834202;77;20935;-66
2021/03/30 10:42:18;;;;;;;1.63;1.53;;;;;;;11.13;88.86;101547.92;1890483;76;22684;-70
2021/03/30 10:44:50;;;;;;;2.62;1.67;;;;;;;11.37;88.80;101557.05;1854764;76;21017;-71
2021/03/30 10:47:29;;;;;;;3.33;1.87;;;;;;;11.61;84.77;101551.72;1754421;80;21051;-69
2021/03/30 10:50:16;;;;;;;12.70;5.85;;;;;;;11.65;82.12;101547.73;1706990;80;21659;-69
2021/03/30 10:52:44;;;;;;;3.15;1.90;;;;;;;11.61;82.12;101550.37;1763173;80;21085;-71
2021/03/30 10:55:20;;;;;;;1.77;1.42;;;;;;;11.56;81.53;101549.42;1752081;80;20975;-69
2021/03/30 10:57:46;;;;;;;1.30;1.27;;;;;;;11.55;82.57;101544.52;1724053;80;21639;-71
2021/03/30 11:00:17;;;;;;;1.67;1.57;;;;;;;11.62;82.05;101548.87;1738237;82;21151;-69
2021/03/30 11:02:54;;;;;;;1.73;1.27;;;;;;;11.55;79.16;101548.58;1865734;75;22823;-71
2021/03/30 11:05:22;;;;;;;2.65;1.75;;;;;;;11.50;80.78;101544.08;1858985;77;20989;-72
2021/03/30 11:07:51;;;;;;;10.10;3.77;;;;;;;11.55;76.62;101547.22;1831244;77;21094;-70
2021/03/30 11:10:21;;;;;;;3.65;2.20;;;;;;;11.36;75.76;101546.69;1828444;78;21036;-70
2021/03/30 11:12:49;;;;;;;4.20;2.12;;;;;;;11.12;73.91;101539.42;1828688;77;21061;-70
2021/03/30 11:15:17;;;;;;;4.22;2.98;;;;;;;10.91;76.71;101534.96;1827026;78;21017;-70
2021/03/30 11:17:46;;;;;;;5.47;3.45;;;;;;;10.80;77.79;101533.69;1829291;77;21028;-72
2021/03/30 11:20:15;;;;;;;1.72;1.62;;;;;;;10.63;73.81;101537.90;1827831;77;21420;-69
2021/03/30 11:22:48;;;;;;;3.08;1.82;;;;;;;10.36;77.10;101531.72;1838966;77;21052;-70
2021/03/30 11:25:15;;;;;;;3.87;2.70;;;;;;;10.15;79.13;101531.19;1836623;76;20992;-70
2021/03/30 11:27:48;;;;;;;17.85;3.05;;;;;;;9.94;81.40;101526.27;1842050;76;20968;-70
2021/03/30 11:30:20;;;;;;;5.70;3.27;;;;;;;9.85;84.84;101523.85;1834999;77;21577;-70
2021/03/30 11:35:25;;;;;;;12.00;4.62;;;;;;;9.77;85.51;101518.23;1838950;76;21013;-69
2021/03/30 11:38:05;;;;;;;9.00;3.60;;;;;;;9.61;88.41;101526.77;1824415;77;21018;-70
2021/03/30 11:40:30;;;;;;;3.25;1.85;;;;;;;9.48;89.19;101522.39;1842105;77;20930;-68
2021/03/30 11:42:58;;;;;;;1.10;0.90;;;;;;;9.37;89.93;101518.39;1858070;77;21044;-69
2021/03/30 11:45:27;;;;;;;1.67;1.50;;;;;;;9.28;91.58;101520.00;1852200;77;21255;-68
2021/03/30 11:47:55;;;;;;;1.50;1.40;;;;;;;9.27;91.77;101514.73;1838485;77;20997;-69
2021/03/30 11:50:24;;;;;;;3.23;2.30;;;;;;;9.26;90.64;101509.83;1850589;77;21018;-70
2021/03/30 11:52:52;;;;;;;1.43;1.33;;;;;;;9.33;90.38;101515.58;1819640;78;20942;-72
2021/03/30 11:55:22;;;;;;;0.90;0.90;;;;;;;9.30;88.54;101512.63;1826368;77;20961;-72
2021/03/30 11:57:50;;;;;;;1.67;1.57;;;;;;;9.15;86.85;101505.79;1837225;77;21615;-71
2021/03/30 12:00:19;;;;;;;3.83;2.20;;;;;;;8.88;86.94;101504.86;1829656;77;21625;-69
2021/03/30 12:02:50;;;;;;;3.60;1.87;;;;;;;8.69;90.25;101511.75;1843964;77;20985;-69
2021/03/30 12:05:19;;;;;;;1.57;1.47;;;;;;;8.61;91.05;101504.75;1827273;77;20962;-72